createdAt,value
2022-09-18T00:02:17.857Z,55.02
2022-09-18T00:07:20.186Z,55.18
2022-09-18T00:12:21.714Z,54.87
2022-09-18T00:17:23.300Z,55.68
2022-09-18T00:22:24.923Z,55.44
2022-09-18T00:27:26.467Z,54.89
2022-09-18T00:32:28.054Z,55.32
2022-09-18T00:37:29.664Z,55.18
2022-09-18T00:42:31.344Z,55.02
2022-09-18T00:47:38.325Z,55.05
2022-09-18T00:53:06.150Z,55.24
2022-09-18T00:58:09.438Z,55.42
2022-09-18T01:03:11.363Z,55.16
2022-09-18T01:08:33.282Z,54.95
2022-09-18T01:13:34.915Z,55.32
2022-09-18T01:18:41.225Z,55.42
2022-09-18T01:24:06.515Z,55.05
2022-09-18T01:29:28.393Z,55.03
2022-09-18T01:34:37.380Z,55.22
2022-09-18T01:39:54.445Z,55.14
2022-09-18T01:45:00.469Z,55.27
2022-09-18T01:50:03.070Z,55.05
2022-09-18T01:55:13.120Z,55.48
2022-09-18T02:00:15.275Z,55.69
2022-09-18T02:05:36.070Z,55.86
2022-09-18T02:10:42.974Z,55.72
2022-09-18T02:15:47.864Z,55.85
2022-09-18T02:20:53.524Z,55.93
2022-09-18T02:25:59.266Z,55.95
2022-09-18T02:31:01.299Z,56.58
2022-09-18T02:36:36.475Z,56.23
2022-09-18T02:41:46.573Z,56.12
2022-09-18T02:47:03.500Z,56.44
2022-09-18T02:52:29.871Z,56.45
2022-09-18T02:57:41.582Z,56.37
2022-09-18T03:02:47.804Z,56.82
2022-09-18T03:07:56.548Z,57.01
2022-09-18T03:12:58.476Z,56.69
2022-09-18T03:18:00.299Z,56.83
2022-09-18T03:23:01.881Z,56.74
2022-09-18T03:28:05.559Z,56.63
2022-09-18T03:33:11.963Z,56.48
2022-09-18T03:38:15.543Z,56.74
2022-09-18T03:43:17.448Z,57.11
2022-09-18T03:48:20.531Z,57.07
2022-09-18T03:53:23.014Z,57.22
2022-09-18T03:58:45.299Z,57.07
2022-09-18T04:04:05.440Z,57.30
2022-09-18T04:09:26.630Z,57.32
2022-09-18T04:14:30.275Z,57.32
2022-09-18T04:19:33.230Z,57.35
2022-09-18T04:24:36.384Z,57.58
2022-09-18T04:29:39.216Z,57.40
2022-09-18T04:34:43.278Z,57.68
2022-09-18T04:39:46.991Z,57.51
2022-09-18T04:44:49.343Z,57.63
2022-09-18T04:49:51.246Z,57.54
2022-09-18T04:54:53.709Z,57.65
2022-09-18T04:59:56.064Z,57.30
2022-09-18T05:04:57.699Z,57.76
2022-09-18T05:10:08.654Z,57.67
2022-09-18T05:15:11.901Z,57.37
2022-09-18T05:20:14.610Z,57.49
2022-09-18T05:25:17.240Z,57.68
2022-09-18T05:30:20.170Z,58.00
2022-09-18T05:35:33.753Z,57.55
2022-09-18T05:40:37.461Z,57.71
2022-09-18T05:45:39.275Z,57.76
2022-09-18T05:50:51.942Z,57.92
2022-09-18T05:55:54.783Z,57.85
2022-09-18T06:00:58.785Z,57.90
2022-09-18T06:06:07.823Z,57.87
2022-09-18T06:11:10.851Z,57.51
2022-09-18T06:16:12.500Z,57.56
2022-09-18T06:21:26.792Z,57.54
2022-09-18T06:26:28.325Z,57.49
2022-09-18T06:31:29.952Z,57.53
2022-09-18T06:36:43.449Z,57.66
2022-09-18T06:42:01.319Z,57.53
2022-09-18T06:47:21.400Z,57.85
2022-09-18T06:52:23.789Z,57.27
2022-09-18T06:57:28.424Z,57.60
2022-09-18T07:02:30.086Z,57.79
2022-09-18T07:08:09.897Z,57.64
2022-09-18T07:13:13.334Z,57.65
2022-09-18T07:18:20.371Z,57.72
2022-09-18T07:23:22.380Z,58.11
2022-09-18T07:28:26.727Z,57.71
2022-09-18T07:33:35.850Z,57.75
2022-09-18T07:38:37.702Z,57.59
2022-09-18T07:43:40.314Z,57.33
2022-09-18T07:48:41.912Z,57.69
2022-09-18T07:53:49.131Z,57.77
2022-09-18T07:58:58.626Z,57.62
2022-09-18T08:04:03.937Z,57.51
2022-09-18T08:09:11.409Z,57.80
2022-09-18T08:14:31.525Z,58.19
2022-09-18T08:19:51.644Z,58.22
2022-09-18T08:25:13.584Z,57.84
2022-09-18T08:30:17.803Z,57.91
2022-09-18T08:35:21.963Z,57.84
2022-09-18T08:40:39.866Z,57.85
2022-09-18T08:46:11.408Z,58.01
2022-09-18T08:51:26.653Z,58.02
2022-09-18T08:56:30.878Z,58.06
2022-09-18T09:02:13.366Z,58.09
2022-09-18T09:07:28.896Z,58.38
2022-09-18T09:12:58.338Z,58.15
2022-09-18T09:18:18.960Z,58.12
2022-09-18T09:23:31.859Z,58.42
2022-09-18T09:29:06.335Z,58.34
2022-09-18T09:34:35.966Z,58.37
2022-09-18T09:40:06.966Z,58.63
2022-09-18T09:45:20.500Z,58.27
2022-09-18T09:50:36.601Z,58.28
2022-09-18T09:55:57.341Z,58.33
2022-09-18T10:01:22.939Z,58.27
2022-09-18T10:06:44.413Z,58.44
2022-09-18T10:11:58.972Z,58.49
2022-09-18T10:17:04.490Z,58.63
2022-09-18T10:22:07.921Z,58.59
2022-09-18T10:27:14.595Z,58.33
2022-09-18T10:32:38.109Z,58.47
2022-09-18T10:37:53.202Z,58.02
2022-09-18T10:43:03.264Z,58.07
2022-09-18T10:48:22.506Z,57.75
2022-09-18T10:53:34.795Z,57.84
2022-09-18T10:58:46.595Z,58.08
2022-09-18T11:04:01.912Z,57.94
2022-09-18T11:09:10.523Z,58.02
2022-09-18T11:14:23.558Z,58.06
2022-09-18T11:19:38.038Z,57.84
2022-09-18T11:25:21.346Z,57.80
2022-09-18T11:30:28.458Z,57.67
2022-09-18T11:35:33.091Z,57.97
2022-09-18T11:40:49.518Z,57.78
2022-09-18T11:46:21.091Z,57.76
2022-09-18T11:51:30.737Z,57.74
2022-09-18T11:56:48.921Z,57.68
2022-09-18T12:02:00.617Z,57.73
2022-09-18T12:12:44.558Z,57.82
2022-09-18T12:18:03.274Z,57.87
2022-09-18T12:23:04.912Z,57.66
2022-09-18T12:28:35.609Z,57.94
2022-09-18T12:34:03.290Z,57.81
2022-09-18T12:39:16.978Z,57.64
2022-09-18T12:44:55.631Z,57.56
2022-09-18T12:50:12.299Z,57.66
2022-09-18T12:55:44.957Z,57.66
2022-09-18T13:00:50.229Z,57.31
2022-09-18T13:06:06.032Z,57.59
2022-09-18T13:11:37.490Z,57.21
2022-09-18T13:17:05.378Z,57.45
2022-09-18T13:22:14.301Z,57.29
2022-09-18T13:27:19.207Z,57.11
2022-09-18T13:32:41.611Z,57.40
2022-09-18T13:37:43.633Z,57.04
2022-09-18T13:42:45.142Z,57.23
2022-09-18T13:48:04.866Z,56.76
2022-09-18T13:53:07.294Z,56.92
2022-09-18T13:58:30.657Z,56.99
2022-09-18T14:03:35.870Z,57.15
2022-09-18T14:08:38.229Z,57.02
2022-09-18T14:13:51.606Z,57.10
2022-09-18T14:19:03.221Z,57.09
2022-09-18T14:24:38.024Z,57.01
2022-09-18T14:29:39.970Z,57.21
2022-09-18T14:34:43.637Z,57.07
2022-09-18T14:39:45.735Z,56.99
2022-09-18T14:44:56.811Z,56.86
2022-09-18T14:49:58.331Z,56.88
2022-09-18T14:55:10.048Z,56.88
2022-09-18T15:00:25.441Z,56.78
2022-09-18T15:05:28.109Z,56.58
2022-09-18T15:10:30.790Z,56.94
2022-09-18T15:15:35.198Z,56.72
2022-09-18T15:20:36.751Z,56.18
2022-09-18T15:25:43.367Z,56.37
2022-09-18T15:30:45.149Z,56.27
2022-09-18T15:35:51.565Z,56.18
2022-09-18T15:40:53.478Z,56.13
2022-09-18T15:46:09.163Z,56.06
2022-09-18T15:51:17.158Z,55.79
2022-09-18T15:56:21.117Z,56.01
2022-09-18T16:01:27.360Z,55.76
2022-09-18T16:06:32.437Z,55.83
2022-09-18T16:11:52.495Z,55.72
2022-09-18T16:16:54.055Z,55.86
2022-09-18T16:21:55.624Z,55.85
2022-09-18T16:27:07.569Z,56.04
2022-09-18T16:32:11.565Z,55.93
2022-09-18T16:37:13.758Z,55.67
2022-09-18T16:42:18.554Z,55.56
2022-09-18T16:47:20.144Z,55.65
2022-09-18T16:52:21.603Z,55.71
2022-09-18T16:57:24.908Z,55.68
2022-09-18T17:02:26.698Z,55.67
2022-09-18T17:07:29.662Z,55.69
2022-09-18T17:12:31.220Z,55.93
2022-09-18T17:17:33.666Z,56.02
2022-09-18T17:22:35.268Z,55.91
2022-09-18T17:27:41.728Z,55.91
2022-09-18T17:32:48.182Z,55.93
2022-09-18T17:37:51.657Z,56.17
2022-09-18T17:42:53.895Z,56.06
2022-09-18T17:47:55.743Z,56.08
2022-09-18T17:52:57.221Z,56.08
2022-09-18T17:57:58.769Z,56.28
2022-09-18T18:03:00.265Z,56.38
2022-09-18T18:08:02.310Z,56.24
2022-09-18T18:13:03.844Z,56.42
2022-09-18T18:18:05.492Z,56.17
2022-09-18T18:23:07.039Z,56.49
2022-09-18T18:28:11.131Z,56.34
2022-09-18T18:33:12.657Z,56.38
2022-09-18T18:38:14.186Z,56.56
2022-09-18T18:43:15.669Z,56.40
2022-09-18T18:48:17.260Z,56.77
2022-09-18T18:53:18.771Z,56.55
2022-09-18T18:58:20.300Z,56.67
2022-09-18T19:03:22.687Z,56.38
2022-09-18T19:08:24.373Z,56.70
2022-09-18T19:13:27.458Z,56.83
2022-09-18T19:18:28.979Z,56.89
2022-09-18T19:23:30.611Z,56.75
2022-09-18T19:28:33.070Z,56.90
2022-09-18T19:33:34.814Z,56.79
2022-09-18T19:38:36.896Z,56.88
2022-09-18T19:43:38.648Z,57.15
2022-09-18T19:48:40.214Z,56.93
2022-09-18T19:53:41.718Z,57.13
2022-09-18T19:58:44.934Z,56.90
2022-09-18T20:03:46.656Z,57.13
2022-09-18T20:08:48.826Z,57.42
2022-09-18T20:13:51.514Z,57.21
2022-09-18T20:18:52.994Z,57.63
2022-09-18T20:23:58.492Z,57.23
2022-09-18T20:29:00.014Z,57.40
2022-09-18T20:34:02.578Z,57.82
2022-09-18T20:39:04.213Z,57.50
2022-09-18T20:44:05.746Z,57.65
2022-09-18T20:49:08.117Z,57.80
2022-09-18T20:54:10.058Z,57.65
2022-09-18T20:59:13.743Z,57.55
2022-09-18T21:04:17.739Z,57.59
2022-09-18T21:09:19.258Z,57.95
2022-09-18T21:14:21.090Z,57.45
2022-09-18T21:19:25.949Z,57.78
2022-09-18T21:24:27.655Z,57.73
2022-09-18T21:29:30.172Z,57.54
2022-09-18T21:34:33.460Z,58.15
2022-09-18T21:39:35.653Z,57.87
2022-09-18T21:44:37.626Z,57.87
2022-09-18T21:49:39.113Z,58.26
2022-09-18T21:54:41.251Z,58.08
2022-09-18T21:59:42.893Z,58.16
2022-09-18T22:04:45.650Z,58.10
2022-09-18T22:09:47.253Z,58.49
2022-09-18T22:14:48.906Z,58.01
2022-09-18T22:19:50.414Z,58.57
2022-09-18T22:24:51.947Z,57.56
2022-09-18T22:29:53.438Z,57.16
2022-09-18T22:34:55.839Z,56.61
2022-09-18T22:39:57.781Z,56.35
2022-09-18T22:44:59.774Z,56.59
2022-09-18T22:50:02.902Z,56.51
2022-09-18T22:55:04.663Z,56.44
2022-09-18T23:00:07.029Z,56.50
2022-09-18T23:05:08.830Z,56.26
2022-09-18T23:10:10.527Z,56.54
2022-09-18T23:15:12.022Z,56.69
2022-09-18T23:20:15.248Z,56.71
2022-09-18T23:25:16.738Z,56.19
2022-09-18T23:30:19.041Z,56.55
2022-09-18T23:35:20.525Z,56.21
2022-09-18T23:40:22.072Z,56.71
2022-09-18T23:45:23.579Z,56.16
2022-09-18T23:50:25.093Z,56.21
2022-09-18T23:55:27.120Z,56.57
